KFHU/FHU METAR and TAF weather

Enter ICAO airport designator
Station Type Date Time Source
KFHU METAR 2020/07/15 05:58 UTC NOAA

KFHU 150558Z 18017G26KT 10SM CLR 27/11 A3017 RMK AO2A LTG DSNT SE SLP132 T02720113 10349 20271 52020


Station Type Date Time Source
KFHU Decoded METAR 2020/07/15 05:58 UTC NOAA

Fort Huachuca, Libby AAF Ft Huachuca, AZ, United States (KFHU) 46-98N 110-20W
Jul 15, 2020 - 01:58 AM EDT / 2020.07.15 0558 UTC
Wind: from the S (180 degrees) at 20 MPH (17 KT) gusting to 30 MPH (26 KT):0
Visibility: 10 mile(s):0
Sky conditions: clear
Weather: Lightning observed
Temperature: 81.0 F (27.2 C)
Dew Point: 52.3 F (11.3 C)
Relative Humidity: 37%
Pressure (altimeter): 30.17 in. Hg (1021 hPa)
Pressure tendency: 0.06 inches (2.0 hPa) higher than three hours ago
ob: KFHU 150558Z 18017G26KT 10SM CLR 27/11 A3017 RMK AO2A LTG DSNT SE SLP132 T02720113 10349 20271 52020
cycle: 6

Station Type Date Time Source
KFHU TAF 2020/07/15 02:17 UTC NOAA

TAF KFHU 150204Z 1502/1608 VRB06KT 9999 BKN090 QNH3002INS
TEMPO 1502/1504 VRB20G30KT 9000 -TSRA BKN090CB
BECMG 1505/1506 VRB06KT 9999 BKN120 QNH3014INS
BECMG 1519/1520 21009KT 9999 VCTS BKN100CB QNH2998INS
TEMPO 1521/1603 VRB35G45KT 8000 -TSRA BKN090CB
BECMG 1605/1606 VRB06KT 9999 NSW BKN100 QNH3010INS TX33/1520Z TN20/1513Z

Example: see airport list